Time;durP1;ratioP1;P1;durP2;ratioP2;P2;SDS_P1;SDS_P2;PMS_P1;PMS_P2;Temp;Humidity;BMP_temperature;BMP_pressure;BME280_temperature;BME280_humidity;BME280_pressure;Samples;Min_cycle;Max_cycle;Signal;HPM_P1;HPM_P2
2023/07/15 00:00:31;;;;;;;3.08;2.80;;;;;;;20.55;100.00;96296.59;5061792;28;20619;-61
2023/07/15 00:02:57;;;;;;;3.00;2.80;;;;;;;20.50;100.00;96288.38;5062219;28;20362;-61
2023/07/15 00:05:28;;;;;;;2.85;2.65;;;;;;;20.50;100.00;96291.06;5061481;28;20552;-62
2023/07/15 00:07:56;;;;;;;4.30;2.85;;;;;;;20.47;100.00;96292.31;5061814;28;20278;-61
2023/07/15 00:10:23;;;;;;;3.90;2.95;;;;;;;20.40;100.00;96296.88;5062345;28;20269;-62
2023/07/15 00:12:51;;;;;;;3.00;2.72;;;;;;;20.40;100.00;96299.56;5062188;28;20284;-62
2023/07/15 00:15:17;;;;;;;3.08;2.78;;;;;;;20.40;100.00;96293.38;5061656;28;20316;-61
2023/07/15 00:17:44;;;;;;;3.72;2.75;;;;;;;20.38;100.00;96292.75;5062482;28;20599;-61
2023/07/15 00:20:14;;;;;;;2.83;2.58;;;;;;;20.33;100.00;96296.09;5061267;28;20627;-61
2023/07/15 00:22:41;;;;;;;2.72;2.60;;;;;;;20.32;100.00;96294.44;5061703;28;20214;-62
2023/07/15 00:25:11;;;;;;;2.90;2.67;;;;;;;20.30;100.00;96302.69;5061152;28;20290;-62
2023/07/15 00:27:38;;;;;;;2.88;2.78;;;;;;;20.30;100.00;96296.50;5060697;28;20202;-61
2023/07/15 00:30:08;;;;;;;4.47;2.92;;;;;;;20.32;100.00;96297.13;5060718;28;20203;-62
2023/07/15 00:32:34;;;;;;;3.35;3.05;;;;;;;20.23;100.00;96295.66;5062371;28;20285;-61
2023/07/15 00:35:00;;;;;;;4.25;2.47;;;;;;;20.25;100.00;96296.28;5061984;28;20198;-61
2023/07/15 00:37:28;;;;;;;4.88;2.72;;;;;;;20.26;100.00;96293.38;5061605;28;20598;-63
2023/07/15 00:39:55;;;;;;;3.38;2.90;;;;;;;20.23;100.00;96291.09;5062106;28;20260;-61
2023/07/15 00:42:42;;;;;;;5.07;2.85;;;;;;;20.18;100.00;96296.31;5061854;28;20294;-61
2023/07/15 00:45:08;;;;;;;4.13;2.80;;;;;;;20.12;100.00;96299.00;5062103;28;20530;-61
2023/07/15 00:47:39;;;;;;;4.15;2.60;;;;;;;20.14;100.00;96297.75;5061660;28;20202;-61
2023/07/15 00:50:06;;;;;;;3.65;2.80;;;;;;;20.16;100.00;96302.91;5061700;28;20383;-61
2023/07/15 00:52:33;;;;;;;2.97;2.78;;;;;;;20.09;100.00;96300.25;5061200;28;20210;-62
2023/07/15 00:55:01;;;;;;;2.90;2.70;;;;;;;20.05;100.00;96296.31;5061751;28;20285;-62
2023/07/15 00:57:28;;;;;;;3.30;3.00;;;;;;;20.04;100.00;96297.38;5060342;28;20678;-62
2023/07/15 00:59:58;;;;;;;3.38;2.53;;;;;;;20.00;100.00;96301.50;5062240;28;20203;-62
2023/07/15 01:02:25;;;;;;;4.05;3.05;;;;;;;20.02;100.00;96303.97;5063352;28;20222;-61
2023/07/15 01:04:53;;;;;;;3.03;2.83;;;;;;;19.97;100.00;96293.88;5065024;28;20636;-61
2023/07/15 01:07:19;;;;;;;3.20;2.70;;;;;;;19.98;100.00;96295.50;5066007;28;20199;-62
2023/07/15 01:09:46;;;;;;;3.95;2.55;;;;;;;19.97;100.00;96291.19;5053909;28;20234;-61
2023/07/15 01:12:13;;;;;;;2.80;2.60;;;;;;;19.97;100.00;96295.75;5044993;28;20199;-61
2023/07/15 01:14:41;;;;;;;3.10;2.90;;;;;;;19.88;100.00;96293.28;5044880;28;20558;-61
2023/07/15 01:17:07;;;;;;;5.25;2.90;;;;;;;19.90;100.00;96285.03;5045375;28;20246;-61
2023/07/15 01:19:33;;;;;;;3.42;2.90;;;;;;;19.91;100.00;96288.53;5044945;28;20684;-61
2023/07/15 01:22:01;;;;;;;3.00;2.80;;;;;;;19.94;100.00;96285.44;5044779;28;20204;-61
2023/07/15 01:24:29;;;;;;;3.33;3.00;;;;;;;19.85;100.00;96277.59;5045243;28;20217;-60
2023/07/15 01:26:59;;;;;;;3.13;2.88;;;;;;;19.85;100.00;96282.13;5044220;28;20661;-61
2023/07/15 01:29:25;;;;;;;4.68;2.97;;;;;;;19.78;100.00;96279.47;5044426;28;20282;-61
2023/07/15 01:31:52;;;;;;;3.53;3.03;;;;;;;19.79;100.00;96278.44;5045125;28;20204;-61
2023/07/15 01:34:19;;;;;;;3.80;3.10;;;;;;;19.76;100.00;96273.50;5044480;28;20214;-62
2023/07/15 01:36:46;;;;;;;2.97;2.80;;;;;;;19.78;100.00;96276.78;5044720;28;20219;-61
2023/07/15 01:39:12;;;;;;;4.28;2.80;;;;;;;19.82;100.00;96274.50;5044948;28;20223;-61
2023/07/15 01:41:41;;;;;;;3.92;3.17;;;;;;;19.71;100.00;96273.28;5044460;28;20208;-62
2023/07/15 01:44:08;;;;;;;3.83;3.53;;;;;;;19.73;100.00;96279.25;5044374;28;20226;-61
2023/07/15 01:46:38;;;;;;;4.30;3.55;;;;;;;19.78;100.00;96276.78;5045149;28;20218;-61
2023/07/15 01:49:05;;;;;;;3.88;3.45;;;;;;;19.70;100.00;96273.47;5044723;28;20655;-61
2023/07/15 01:51:31;;;;;;;3.33;2.75;;;;;;;19.71;100.00;96275.13;5048063;28;20515;-62
2023/07/15 01:53:58;;;;;;;3.30;3.08;;;;;;;19.66;100.00;96269.59;5050269;28;20245;-61
2023/07/15 01:56:25;;;;;;;3.40;3.03;;;;;;;19.64;100.00;96275.16;5046683;28;20261;-61
2023/07/15 01:58:53;;;;;;;3.15;2.95;;;;;;;19.64;100.00;96268.97;5043509;28;20767;-61
2023/07/15 02:01:20;;;;;;;3.65;3.35;;;;;;;19.55;100.00;96260.31;5045079;28;20206;-61
2023/07/15 02:03:47;;;;;;;3.22;2.92;;;;;;;19.60;100.00;96260.50;5043771;28;20208;-61
2023/07/15 02:06:14;;;;;;;3.78;3.03;;;;;;;19.61;100.00;96259.47;5042532;28;20199;-61
2023/07/15 02:08:41;;;;;;;3.30;2.78;;;;;;;19.57;100.00;96255.56;5044252;28;20199;-63
2023/07/15 02:11:08;;;;;;;6.93;3.22;;;;;;;19.53;100.00;96262.38;5045361;28;20211;-60
2023/07/15 02:13:34;;;;;;;3.47;3.17;;;;;;;19.48;100.00;96253.31;5044327;28;20232;-61
2023/07/15 02:16:02;;;;;;;3.20;2.90;;;;;;;19.48;100.00;96261.34;5044418;28;20302;-61
2023/07/15 02:18:29;;;;;;;4.40;3.35;;;;;;;19.44;100.00;96252.91;5043992;28;20306;-62
2023/07/15 02:20:56;;;;;;;3.78;3.40;;;;;;;19.44;100.00;96260.94;5044076;28;20200;-62
2023/07/15 02:23:24;;;;;;;3.47;3.17;;;;;;;19.40;100.00;96262.34;5043609;28;20207;-62
2023/07/15 02:25:51;;;;;;;3.40;3.20;;;;;;;19.42;100.00;96264.84;5044289;28;20219;-61
2023/07/15 02:28:17;;;;;;;3.50;3.30;;;;;;;19.41;100.00;96257.81;5043171;28;20199;-63
2023/07/15 02:30:44;;;;;;;3.78;3.47;;;;;;;19.38;100.00;96264.41;5043851;28;21303;-62
2023/07/15 02:33:12;;;;;;;5.47;3.13;;;;;;;19.38;100.00;96267.06;5043701;28;20611;-62
2023/07/15 02:35:40;;;;;;;3.50;3.30;;;;;;;19.37;100.00;96263.59;5044268;28;20307;-61
2023/07/15 02:38:07;;;;;;;3.72;3.42;;;;;;;19.33;100.00;96265.03;5044742;28;20322;-61
2023/07/15 02:40:34;;;;;;;3.78;3.47;;;;;;;19.30;100.00;96267.31;5044590;28;20613;-62
2023/07/15 02:43:01;;;;;;;3.70;3.33;;;;;;;19.32;100.00;96259.88;5044257;28;20206;-62
2023/07/15 02:45:27;;;;;;;3.25;3.05;;;;;;;19.31;100.00;96268.94;5045451;28;20207;-60
2023/07/15 02:47:54;;;;;;;3.50;3.20;;;;;;;19.24;100.00;96260.06;5044039;28;20207;-60
2023/07/15 02:50:22;;;;;;;3.47;3.28;;;;;;;19.21;100.00;96257.81;5044036;28;20276;-61
2023/07/15 02:52:48;;;;;;;7.93;3.25;;;;;;;19.19;100.00;96255.34;5041381;28;20233;-61
2023/07/15 02:55:15;;;;;;;4.40;3.28;;;;;;;19.22;100.00;96259.47;5043875;28;20207;-61
2023/07/15 02:57:42;;;;;;;3.58;3.28;;;;;;;19.18;100.00;96259.03;5043125;28;20556;-62
2023/07/15 03:00:12;;;;;;;3.42;3.22;;;;;;;19.12;100.00;96257.19;5044868;28;20612;-63
2023/07/15 03:02:39;;;;;;;5.80;3.15;;;;;;;19.13;100.00;96252.66;5046574;28;20215;-62
2023/07/15 03:05:06;;;;;;;3.20;3.00;;;;;;;19.05;100.00;96258.22;5046487;28;20198;-62
2023/07/15 03:07:34;;;;;;;6.28;3.45;;;;;;;19.01;100.00;96254.28;5044232;28;20196;-61
2023/07/15 03:10:01;;;;;;;5.05;3.45;;;;;;;18.98;100.00;96258.22;5042957;28;20195;-61
2023/07/15 03:12:28;;;;;;;3.38;3.08;;;;;;;18.92;100.00;96259.00;5044711;28;20208;-61
2023/07/15 03:14:55;;;;;;;3.35;3.03;;;;;;;18.88;100.00;96258.59;5043300;28;20249;-61
2023/07/15 03:17:21;;;;;;;3.30;3.10;;;;;;;18.84;100.00;96252.03;5043287;28;20237;-62
2023/07/15 03:19:48;;;;;;;3.28;3.00;;;;;;;18.85;100.00;96250.13;5045090;28;20204;-61
2023/07/15 03:22:14;;;;;;;3.40;3.05;;;;;;;18.88;100.00;96252.44;5045548;28;20211;-62
2023/07/15 03:24:42;;;;;;;3.38;2.97;;;;;;;18.82;100.00;96254.06;5044533;28;20533;-61
2023/07/15 03:27:08;;;;;;;3.40;2.97;;;;;;;18.83;100.00;96252.22;5044664;28;20203;-61
2023/07/15 03:29:36;;;;;;;3.53;3.22;;;;;;;18.78;100.00;96258.16;5043737;28;20222;-61
2023/07/15 03:32:02;;;;;;;4.93;3.35;;;;;;;18.76;100.00;96257.56;5045513;28;20208;-61
2023/07/15 03:34:29;;;;;;;4.18;3.13;;;;;;;18.74;100.00;96259.59;5043797;28;20218;-62
2023/07/15 03:36:55;;;;;;;3.85;3.30;;;;;;;18.72;100.00;96253.63;5043132;28;20219;-61
2023/07/15 03:39:23;;;;;;;3.83;3.15;;;;;;;18.72;100.00;96250.13;5042961;28;20211;-62
2023/07/15 03:41:52;;;;;;;3.65;3.35;;;;;;;18.69;100.00;96254.03;5043581;28;20290;-60
2023/07/15 03:44:18;;;;;;;3.75;3.22;;;;;;;18.67;100.00;96250.72;5042735;28;20269;-62
2023/07/15 03:46:45;;;;;;;3.47;3.17;;;;;;;18.65;100.00;96252.78;5042857;28;20222;-61
2023/07/15 03:49:12;;;;;;;3.30;3.10;;;;;;;18.64;100.00;96255.66;5043542;28;20195;-62
2023/07/15 03:51:38;;;;;;;3.50;3.20;;;;;;;18.65;100.00;96252.78;5042479;28;20215;-60
2023/07/15 03:54:05;;;;;;;4.45;3.08;;;;;;;18.65;100.00;96254.63;5042738;28;20285;-62
2023/07/15 03:56:32;;;;;;;3.13;2.88;;;;;;;18.61;100.00;96248.88;5042224;28;20265;-61
2023/07/15 03:59:00;;;;;;;3.38;3.08;;;;;;;18.58;100.00;96246.59;5042118;28;20223;-61
2023/07/15 04:01:27;;;;;;;3.40;3.20;;;;;;;18.61;100.00;96243.50;5042484;28;20214;-61
2023/07/15 04:03:53;;;;;;;3.90;2.80;;;;;;;18.65;100.00;96249.28;5042632;28;20826;-62
2023/07/15 04:06:20;;;;;;;3.20;3.00;;;;;;;18.66;100.00;96248.25;5041841;28;20723;-62
2023/07/15 04:08:46;;;;;;;3.58;3.15;;;;;;;18.62;100.00;96247.84;5042713;28;20215;-61
2023/07/15 04:11:13;;;;;;;4.60;3.13;;;;;;;18.65;100.00;96247.44;5052382;28;20999;-62
2023/07/15 04:13:39;;;;;;;5.40;3.42;;;;;;;18.67;100.00;96248.03;5054157;28;20203;-62
2023/07/15 04:16:07;;;;;;;3.80;3.50;;;;;;;18.65;100.00;96247.44;5050634;28;20237;-62
2023/07/15 04:18:33;;;;;;;3.53;3.22;;;;;;;18.68;100.00;96243.53;5050519;28;20246;-61
2023/07/15 04:21:01;;;;;;;4.15;3.60;;;;;;;18.66;100.00;96238.38;5042443;28;20203;-62
2023/07/15 04:23:28;;;;;;;3.22;3.05;;;;;;;18.66;100.00;96235.69;5042730;28;20214;-61
2023/07/15 04:25:54;;;;;;;3.60;3.30;;;;;;;18.65;100.00;96241.25;5042141;28;20260;-61
2023/07/15 04:28:21;;;;;;;3.60;3.30;;;;;;;18.67;100.00;96234.66;5041759;28;20200;-61
2023/07/15 04:30:48;;;;;;;3.50;3.30;;;;;;;18.73;100.00;96236.53;5042313;28;20207;-61
2023/07/15 04:33:16;;;;;;;4.25;3.38;;;;;;;18.77;100.00;96235.13;5041668;28;20304;-62
2023/07/15 04:35:42;;;;;;;3.92;3.50;;;;;;;18.80;100.00;96234.69;5041884;28;20278;-61
2023/07/15 04:38:10;;;;;;;3.50;3.20;;;;;;;18.81;100.00;96239.00;5044681;28;20754;-61
2023/07/15 04:40:36;;;;;;;3.85;3.53;;;;;;;18.89;100.00;96240.66;5045168;28;20222;-62
2023/07/15 04:43:03;;;;;;;3.72;3.40;;;;;;;19.00;100.00;96229.34;5045325;28;20230;-62
2023/07/15 04:45:30;;;;;;;3.53;3.33;;;;;;;19.07;100.00;96234.69;5045980;28;20539;-62
2023/07/15 04:47:57;;;;;;;3.88;3.58;;;;;;;19.15;100.00;96234.50;5046058;28;20670;-62
2023/07/15 04:50:25;;;;;;;3.92;3.58;;;;;;;19.18;100.00;96229.56;5046032;28;20214;-62
2023/07/15 04:52:51;;;;;;;3.80;3.50;;;;;;;19.27;100.00;96230.19;5045895;28;20277;-63
2023/07/15 04:55:18;;;;;;;3.92;3.63;;;;;;;19.43;100.00;96232.47;5045568;28;20195;-62
2023/07/15 04:57:46;;;;;;;3.40;3.20;;;;;;;19.50;100.00;96225.25;5045665;28;20326;-62
2023/07/15 05:00:13;;;;;;;3.83;3.53;;;;;;;19.54;100.00;96229.16;5045659;28;20211;-62
2023/07/15 05:02:39;;;;;;;3.72;3.42;;;;;;;19.58;100.00;96222.34;5045485;28;20225;-62
2023/07/15 05:05:06;;;;;;;4.32;4.03;;;;;;;19.66;100.00;96229.34;5046968;28;20210;-61
2023/07/15 05:07:34;;;;;;;4.30;3.90;;;;;;;19.71;100.00;96227.69;5046347;28;20212;-61
2023/07/15 05:10:02;;;;;;;4.55;3.75;;;;;;;19.82;100.00;96223.53;5046019;28;20218;-61
2023/07/15 05:12:29;;;;;;;3.97;3.67;;;;;;;19.86;100.00;96228.25;5045574;28;20537;-62
2023/07/15 05:14:55;;;;;;;4.20;3.90;;;;;;;19.96;100.00;96214.41;5045448;28;20570;-61
2023/07/15 05:17:22;;;;;;;3.50;3.30;;;;;;;20.10;100.00;96216.00;5045877;28;20199;-61
2023/07/15 05:19:48;;;;;;;3.83;3.53;;;;;;;20.24;100.00;96216.75;5046079;28;20227;-62
2023/07/15 05:22:15;;;;;;;4.30;3.90;;;;;;;20.34;100.00;96211.78;5045875;28;20289;-61
2023/07/15 05:24:43;;;;;;;4.32;4.00;;;;;;;20.51;100.00;96204.88;5045739;28;20512;-61
2023/07/15 05:27:10;;;;;;;4.00;3.70;;;;;;;20.64;100.00;96196.75;5045676;28;20624;-61
2023/07/15 05:29:37;;;;;;;4.20;3.90;;;;;;;20.79;100.00;96205.34;5045024;28;20196;-61
2023/07/15 05:32:10;;;;;;;3.63;3.22;;;;;;;21.00;100.00;96200.63;5045148;28;20218;-61
2023/07/15 05:34:36;;;;;;;4.35;3.78;;;;;;;21.14;100.00;96196.81;5046194;28;20203;-61
2023/07/15 05:37:05;;;;;;;3.65;3.45;;;;;;;21.26;100.00;96195.06;5044108;28;20241;-61
2023/07/15 05:39:31;;;;;;;3.90;3.60;;;;;;;21.40;100.00;96191.19;5045396;28;20718;-61
2023/07/15 05:41:59;;;;;;;3.63;3.38;;;;;;;21.60;100.00;96199.09;5045027;28;20207;-62
2023/07/15 05:44:25;;;;;;;4.90;3.85;;;;;;;21.79;100.00;96196.19;5044825;28;20211;-62
2023/07/15 05:46:52;;;;;;;3.95;3.70;;;;;;;21.97;100.00;96197.25;5045016;28;20239;-64
2023/07/15 05:49:18;;;;;;;3.85;3.55;;;;;;;22.15;100.00;96186.47;5045542;28;20212;-62
2023/07/15 05:51:45;;;;;;;4.22;3.83;;;;;;;22.32;100.00;96184.78;5046205;28;20214;-62
2023/07/15 05:54:11;;;;;;;3.78;3.47;;;;;;;22.50;100.00;96176.69;5045876;28;20218;-61
2023/07/15 05:56:38;;;;;;;3.55;3.35;;;;;;;22.69;100.00;96174.78;5044654;28;20215;-60
2023/07/15 05:59:06;;;;;;;3.85;3.55;;;;;;;22.83;100.00;96170.03;5044543;28;20215;-61
2023/07/15 06:01:32;;;;;;;3.88;3.47;;;;;;;22.98;100.00;96167.72;5044272;28;20693;-62
2023/07/15 06:04:00;;;;;;;3.90;3.60;;;;;;;23.11;100.00;96162.91;5045287;28;20207;-61
2023/07/15 06:06:26;;;;;;;3.90;3.70;;;;;;;23.28;100.00;96157.66;5044704;28;20207;-62
2023/07/15 06:08:52;;;;;;;4.60;3.72;;;;;;;23.46;100.00;96148.63;5055762;28;20217;-61
2023/07/15 06:11:19;;;;;;;3.90;3.60;;;;;;;23.65;99.42;96142.88;5056683;28;20318;-61
2023/07/15 06:13:45;;;;;;;3.78;3.47;;;;;;;23.80;98.95;96139.69;5052848;28;20207;-61
2023/07/15 06:16:13;;;;;;;3.70;3.42;;;;;;;23.99;98.14;96143.88;5044587;28;20310;-62
2023/07/15 06:18:40;;;;;;;3.63;3.40;;;;;;;24.16;96.88;96138.59;5052711;28;20219;-62
2023/07/15 06:21:08;;;;;;;4.25;3.92;;;;;;;24.35;94.99;96140.03;5049088;28;20210;-62
2023/07/15 06:23:34;;;;;;;4.22;3.90;;;;;;;24.46;92.17;96143.72;5046886;28;20199;-62
2023/07/15 06:26:01;;;;;;;3.50;3.30;;;;;;;24.57;93.32;96132.88;5044888;28;20246;-61
2023/07/15 06:28:27;;;;;;;4.10;3.80;;;;;;;24.72;92.83;96132.34;5043341;28;20207;-62
2023/07/15 06:31:01;;;;;;;3.60;3.30;;;;;;;24.80;90.78;96134.63;5044035;28;20218;-61
2023/07/15 06:33:29;;;;;;;5.18;4.20;;;;;;;24.87;90.27;96129.09;5043959;28;20218;-62
2023/07/15 06:35:55;;;;;;;4.65;4.15;;;;;;;25.05;90.38;96118.00;5044385;28;20553;-61
2023/07/15 06:38:23;;;;;;;5.13;4.00;;;;;;;25.21;89.39;96136.16;5044110;28;20302;-61
2023/07/15 06:40:49;;;;;;;4.00;3.78;;;;;;;25.34;87.72;96129.56;5043674;28;20203;-62
2023/07/15 06:43:16;;;;;;;4.07;3.70;;;;;;;25.47;86.87;96134.66;5043492;28;20203;-61
2023/07/15 06:45:42;;;;;;;3.92;3.63;;;;;;;25.56;86.74;96139.41;5043884;28;20200;-63
2023/07/15 06:48:09;;;;;;;4.20;3.90;;;;;;;25.54;84.10;96136.13;5043544;28;21073;-61
2023/07/15 06:50:36;;;;;;;7.80;3.92;;;;;;;25.69;85.53;96139.06;5044360;28;20269;-62
2023/07/15 06:53:03;;;;;;;4.05;3.70;;;;;;;25.85;84.46;96148.22;5043488;28;20326;-62
2023/07/15 06:55:29;;;;;;;4.93;3.63;;;;;;;26.02;84.30;96143.56;5042876;28;20207;-61
2023/07/15 06:57:56;;;;;;;4.32;3.70;;;;;;;26.18;82.85;96152.75;5042588;28;20215;-61
2023/07/15 07:00:24;;;;;;;4.15;3.70;;;;;;;26.30;82.99;96147.16;5042578;28;20214;-62
2023/07/15 07:02:51;;;;;;;4.75;3.67;;;;;;;26.48;83.14;96144.13;5043487;28;20204;-62
2023/07/15 07:05:20;;;;;;;4.05;3.70;;;;;;;26.60;81.93;96145.63;5043214;28;20218;-62
2023/07/15 07:07:48;;;;;;;4.90;3.65;;;;;;;26.76;80.38;96140.31;5042685;28;20215;-63
2023/07/15 07:10:15;;;;;;;3.60;3.30;;;;;;;27.01;78.90;96143.31;5043273;28;20191;-62
2023/07/15 07:12:41;;;;;;;5.07;3.60;;;;;;;27.23;78.24;96149.47;5042252;28;20207;-62
2023/07/15 07:15:09;;;;;;;3.67;3.38;;;;;;;27.40;76.46;96158.28;5042428;28;20251;-62
2023/07/15 07:17:35;;;;;;;3.67;3.22;;;;;;;27.56;76.04;96154.63;5043017;28;20210;-61
2023/07/15 07:20:03;;;;;;;5.55;3.15;;;;;;;27.74;74.59;96149.84;5042738;28;20235;-62
2023/07/15 07:22:29;;;;;;;3.47;3.17;;;;;;;27.91;74.23;96147.78;5042344;28;20701;-62
2023/07/15 07:24:58;;;;;;;3.50;3.25;;;;;;;28.11;74.43;96151.44;5042492;28;20215;-62
2023/07/15 07:27:25;;;;;;;3.40;3.10;;;;;;;28.31;74.77;96156.13;5044868;28;20285;-62
2023/07/15 07:29:52;;;;;;;3.13;2.83;;;;;;;28.51;70.17;96160.84;5045266;28;20204;-63
2023/07/15 07:32:18;;;;;;;3.92;3.10;;;;;;;28.74;67.66;96160.38;5044484;28;20211;-64
2023/07/15 07:34:45;;;;;;;5.20;2.90;;;;;;;28.95;69.05;96155.75;5042056;28;20235;-63
2023/07/15 07:37:12;;;;;;;3.28;2.97;;;;;;;29.14;70.17;96162.34;5043295;28;20643;-63
2023/07/15 07:39:38;;;;;;;3.00;2.90;;;;;;;29.36;66.72;96151.19;5042817;28;20215;-65
2023/07/15 07:42:07;;;;;;;2.75;2.55;;;;;;;29.54;61.73;96148.75;5042837;28;20251;-64
2023/07/15 07:44:34;;;;;;;3.33;2.80;;;;;;;29.73;63.81;96150.88;5041530;28;20608;-65
2023/07/15 07:47:00;;;;;;;3.17;2.70;;;;;;;29.93;63.16;96156.31;5042685;28;20199;-65
2023/07/15 07:49:27;;;;;;;3.60;3.10;;;;;;;30.01;60.38;96155.72;5044761;28;20218;-65
2023/07/15 07:51:53;;;;;;;3.33;2.95;;;;;;;30.17;59.52;96151.06;5044935;28;20203;-65
2023/07/15 07:54:19;;;;;;;3.80;2.85;;;;;;;30.26;60.58;96150.19;5046891;28;20199;-66
2023/07/15 07:56:46;;;;;;;2.83;2.63;;;;;;;30.46;60.60;96147.41;5044521;28;20536;-66
2023/07/15 07:59:15;;;;;;;4.88;2.78;;;;;;;30.57;59.68;96142.72;5042560;28;20227;-64
2023/07/15 08:01:41;;;;;;;3.60;2.95;;;;;;;30.70;58.11;96138.53;5043740;28;20207;-66
2023/07/15 08:04:08;;;;;;;3.15;2.85;;;;;;;30.88;57.79;96137.88;5043568;28;20211;-66
2023/07/15 08:06:34;;;;;;;3.00;2.80;;;;;;;30.95;55.88;96138.38;5043252;28;20695;-67
2023/07/15 08:09:01;;;;;;;3.20;3.00;;;;;;;30.90;56.08;96135.66;5043863;28;20195;-67
2023/07/15 08:11:27;;;;;;;3.28;2.97;;;;;;;31.07;57.23;96141.63;5043280;28;20210;-66
2023/07/15 08:13:53;;;;;;;3.22;3.00;;;;;;;31.28;56.55;96129.41;5042914;28;20213;-65
2023/07/15 08:16:36;;;;;;;5.07;2.75;;;;;;;31.32;55.40;96130.44;5043820;28;20326;-65
2023/07/15 08:19:03;;;;;;;3.30;3.00;;;;;;;31.45;55.94;96124.34;5044778;28;20214;-66
2023/07/15 08:21:33;;;;;;;5.32;3.45;;;;;;;31.50;54.47;96120.72;5042646;28;20207;-66
2023/07/15 08:24:02;;;;;;;3.45;3.03;;;;;;;31.27;52.67;96122.31;5043627;28;20261;-65
2023/07/15 08:26:28;;;;;;;3.22;2.95;;;;;;;31.47;52.30;96122.13;5042938;28;20206;-66
2023/07/15 08:28:56;;;;;;;3.30;3.00;;;;;;;31.65;53.57;96117.88;5047269;28;20196;-67
2023/07/15 08:31:22;;;;;;;3.42;3.08;;;;;;;31.75;52.31;96119.69;5051229;28;20253;-73
2023/07/15 08:33:50;;;;;;;3.08;2.88;;;;;;;31.87;52.64;96112.72;5042298;28;20200;-65
2023/07/15 08:36:17;;;;;;;3.58;3.00;;;;;;;31.99;51.86;96118.59;5043118;28;20212;-65
2023/07/15 08:38:43;;;;;;;3.08;2.85;;;;;;;31.68;49.68;96108.28;5042181;28;20211;-67
2023/07/15 08:41:10;;;;;;;3.67;3.05;;;;;;;31.96;51.32;96108.22;5041875;28;20207;-66
2023/07/15 08:43:36;;;;;;;3.70;2.90;;;;;;;32.08;48.73;96110.59;5040903;28;20211;-66
2023/07/15 08:46:10;;;;;;;2.92;2.72;;;;;;;32.12;48.96;96100.72;5042705;28;20207;-66
2023/07/15 08:48:36;;;;;;;3.35;3.10;;;;;;;32.16;46.65;96100.94;5041722;28;20585;-67
2023/07/15 08:51:05;;;;;;;2.85;2.65;;;;;;;32.01;44.11;96099.97;5041943;28;20211;-68
2023/07/15 08:53:32;;;;;;;3.05;2.83;;;;;;;31.98;45.54;96099.75;5043790;28;20207;-67
2023/07/15 08:55:59;;;;;;;3.30;3.00;;;;;;;32.27;45.84;96103.25;5043315;28;20517;-66
2023/07/15 08:58:25;;;;;;;3.80;2.83;;;;;;;32.29;44.38;96097.47;5042806;28;20207;-64
2023/07/15 09:00:52;;;;;;;3.38;3.08;;;;;;;32.44;45.59;96092.63;5042858;28;20227;-65
2023/07/15 09:03:20;;;;;;;3.13;2.78;;;;;;;32.39;44.25;96098.16;5042711;28;20199;-65
2023/07/15 09:05:48;;;;;;;3.30;3.00;;;;;;;32.55;45.27;96088.63;5043357;28;20211;-64
2023/07/15 09:08:16;;;;;;;3.38;3.17;;;;;;;32.72;46.78;96090.06;5043008;28;20268;-65
2023/07/15 09:10:53;;;;;;;3.58;3.28;;;;;;;32.71;47.12;96085.69;5042456;28;20582;-68
2023/07/15 09:13:24;;;;;;;3.05;2.85;;;;;;;32.48;46.68;96081.91;5041899;28;20207;-67
2023/07/15 09:15:53;;;;;;;3.95;3.10;;;;;;;32.82;47.40;96081.69;5041205;28;20318;-66
2023/07/15 09:18:20;;;;;;;3.08;2.88;;;;;;;32.94;49.13;96080.13;5042031;28;20210;-65
2023/07/15 09:20:47;;;;;;;3.97;3.17;;;;;;;32.67;45.48;96076.44;5041177;28;20239;-67
2023/07/15 09:23:13;;;;;;;5.55;2.90;;;;;;;32.74;44.54;96077.69;5043602;28;20208;-66
2023/07/15 09:25:49;;;;;;;3.10;2.90;;;;;;;32.58;42.04;96075.44;5045085;28;20211;-65
2023/07/15 09:28:15;;;;;;;3.15;2.92;;;;;;;32.41;42.34;96065.03;5044443;28;20203;-64
2023/07/15 09:30:42;;;;;;;3.58;3.20;;;;;;;32.81;43.62;96064.44;5044983;28;20225;-63
2023/07/15 09:33:08;;;;;;;3.83;3.03;;;;;;;32.63;42.76;96061.72;5045013;28;20238;-63
2023/07/15 09:35:39;;;;;;;3.30;3.08;;;;;;;32.53;43.61;96059.91;5044136;28;20664;-64
2023/07/15 09:38:10;;;;;;;3.28;3.08;;;;;;;32.73;43.31;96050.63;5044586;28;20216;-70
2023/07/15 09:40:43;;;;;;;2.97;2.78;;;;;;;32.85;42.50;96053.69;5045010;28;20222;-61
2023/07/15 09:43:09;;;;;;;3.20;3.00;;;;;;;32.93;43.34;96045.63;5044643;28;20632;-68
2023/07/15 09:45:36;;;;;;;4.00;3.20;;;;;;;32.98;42.47;96042.00;5043922;28;20229;-64
2023/07/15 09:48:05;;;;;;;6.30;5.70;;;;;;;33.20;43.96;96047.66;5044473;28;20219;-65
2023/07/15 09:50:32;;;;;;;3.60;3.30;;;;;;;33.33;45.72;96046.06;5044472;28;20253;-66
2023/07/15 09:53:00;;;;;;;3.78;3.17;;;;;;;33.14;43.03;96040.66;5044406;28;20287;-68
2023/07/15 09:55:27;;;;;;;3.78;3.00;;;;;;;32.97;42.37;96043.09;5044018;28;20234;-67
2023/07/15 09:57:59;;;;;;;3.20;3.00;;;;;;;33.01;43.04;96042.22;5043627;28;20248;-66
2023/07/15 10:00:25;;;;;;;3.50;3.30;;;;;;;32.74;42.94;96039.34;5044099;28;20235;-65
2023/07/15 10:02:57;;;;;;;2.90;2.75;;;;;;;32.59;43.79;96049.75;5044243;28;20204;-67
2023/07/15 10:05:26;;;;;;;3.50;3.30;;;;;;;32.46;43.61;96063.03;5044176;28;20203;-65
2023/07/15 10:07:52;;;;;;;3.58;3.38;;;;;;;32.52;44.52;96058.31;5043736;28;20208;-66
2023/07/15 10:10:19;;;;;;;3.60;3.30;;;;;;;32.65;44.01;96060.31;5044209;28;20204;-66
2023/07/15 10:12:46;;;;;;;3.10;2.83;;;;;;;32.75;44.31;96062.06;5043859;28;20204;-66
2023/07/15 10:15:14;;;;;;;3.22;3.03;;;;;;;32.99;45.84;96060.03;5043812;28;20235;-66
2023/07/15 10:17:40;;;;;;;3.47;3.17;;;;;;;33.17;44.44;96040.03;5044128;28;20219;-68
2023/07/15 10:20:11;;;;;;;3.63;3.00;;;;;;;33.32;42.46;96045.25;5044099;28;20238;-68
2023/07/15 10:22:38;;;;;;;3.50;3.30;;;;;;;33.40;42.26;96039.09;5043558;28;20223;-67
2023/07/15 10:25:09;;;;;;;3.80;3.45;;;;;;;33.41;40.70;96034.38;5044059;28;20212;-64
2023/07/15 10:27:35;;;;;;;3.50;3.20;;;;;;;33.63;40.98;96042.78;5042872;28;20210;-67
2023/07/15 10:30:18;;;;;;;3.33;3.03;;;;;;;33.87;42.31;96039.88;5043551;28;20272;-66
2023/07/15 10:33:12;;;;;;;3.28;2.90;;;;;;;34.02;41.49;96025.81;5047574;28;20204;-66
2023/07/15 10:35:50;;;;;;;3.60;2.88;;;;;;;34.10;39.58;96018.78;5054442;28;20216;-63
2023/07/15 10:38:24;;;;;;;3.15;2.95;;;;;;;34.10;38.23;96019.59;5053092;28;20238;-66
2023/07/15 10:40:52;;;;;;;4.20;3.03;;;;;;;34.22;39.72;96022.69;5044035;28;20216;-66
2023/07/15 10:43:20;;;;;;;3.58;2.65;;;;;;;34.33;39.87;96020.50;5043832;28;20207;-63
2023/07/15 10:45:52;;;;;;;3.50;3.20;;;;;;;34.39;38.11;96014.59;5045197;28;20222;-64
2023/07/15 10:48:20;;;;;;;3.58;3.10;;;;;;;34.50;39.02;96009.69;5046142;28;20216;-65
2023/07/15 10:50:51;;;;;;;3.10;2.90;;;;;;;34.55;38.44;96014.22;5045054;28;20198;-66
2023/07/15 10:53:20;;;;;;;3.17;2.97;;;;;;;34.67;39.25;96014.53;5045869;28;20200;-63
2023/07/15 10:55:46;;;;;;;3.40;3.20;;;;;;;34.79;39.71;95998.31;5044742;28;20667;-62
2023/07/15 10:58:13;;;;;;;3.40;3.10;;;;;;;34.90;41.13;96005.16;5043879;28;20211;-62
2023/07/15 11:00:39;;;;;;;3.13;2.92;;;;;;;34.89;38.99;95995.31;5044056;28;20230;-64
2023/07/15 11:03:07;;;;;;;3.47;3.17;;;;;;;34.93;37.25;95991.59;5044650;28;20640;-66
2023/07/15 11:05:33;;;;;;;3.22;3.03;;;;;;;35.08;39.14;95992.31;5044559;28;20200;-64
2023/07/15 11:08:00;;;;;;;3.22;2.95;;;;;;;35.17;41.33;95994.06;5044606;28;20584;-65
2023/07/15 11:10:33;;;;;;;3.90;3.60;;;;;;;35.01;44.77;95994.72;5043753;28;20293;-65
2023/07/15 11:13:11;;;;;;;3.80;3.50;;;;;;;35.00;44.83;95993.94;5043737;28;20220;-65
2023/07/15 11:15:37;;;;;;;3.42;3.22;;;;;;;34.85;43.26;95986.06;5042635;28;20234;-65
2023/07/15 11:18:04;;;;;;;3.80;3.50;;;;;;;34.69;44.59;95982.06;5042916;28;20207;-65
2023/07/15 11:20:33;;;;;;;3.42;3.22;;;;;;;34.63;43.85;95978.63;5042639;28;20234;-66
2023/07/15 11:23:00;;;;;;;3.92;3.60;;;;;;;34.61;44.51;95967.13;5042277;28;20198;-66
2023/07/15 11:25:28;;;;;;;3.95;3.40;;;;;;;34.63;45.46;95969.56;5042427;28;20884;-66
2023/07/15 11:27:59;;;;;;;3.97;3.67;;;;;;;34.54;45.87;95969.50;5042287;28;20218;-66
2023/07/15 11:30:25;;;;;;;4.10;3.33;;;;;;;34.53;44.86;95967.03;5043361;28;20203;-64